»·PEaware :: N2452Z KECP-KNEW

N2452Z :: KECP-KNEW

FLIGHT INFORMATION

Flight Status: Arrived
Operator: Privately registered:
United States
More flights under this callsign
Pilot: Jari J. (4222)
Aircraft: CIRRUS SR-22 TURBO
(S22T)
More flights by this aircraft type
Origin: KECP
Destination: KNEW Lakefront
United States
More flights between these airports :: More routes between these airports
Route: GPT DCT
File this flight plan on PilotEdge
Remarks:
Altitude:
(Current/Filed)
14,000ft
Speed:
(Current/Filed)
150kts
Departed: 17-Aug-14 02:37 AM
Arrived: 17-Aug-14 03:46 AM
Distance/Time
Traveled:
Not Available
Distance/Time
To Go:
Arrived

Flight Plot

Page will automatically refresh every two minutes.

Flight plan parsing failed; only flown route is shown


Map Options




Map Legend


Flown Route
Filed Route
Departure Airport
Arrival Airport
Navaid (VOR, NDB)
Fix

Horizontal Profiles

Position Reports

Time Latitude Longitude Heading Altitude Ground
Speed
17-Aug-14 02:33 30.344802 -85.792525 68 63ft 0kts
17-Aug-14 02:34 30.345023 -85.791833 69 63ft 0kts
17-Aug-14 02:35 30.345023 -85.791833 69 63ft 0kts
17-Aug-14 02:36 30.348112 -85.791234 339 63ft 83kts
17-Aug-14 02:37 30.401040 -85.829818 298 811ft 319kts
17-Aug-14 02:38 30.396905 -85.919054 252 797ft 251kts
17-Aug-14 02:39 30.380127 -85.994275 260 2683ft 239kts
17-Aug-14 02:40 30.377259 -86.073158 268 4677ft 253kts
17-Aug-14 02:41 30.380495 -86.157052 271 6675ft 266kts
17-Aug-14 02:42 30.385279 -86.244309 271 8670ft 275kts
17-Aug-14 02:43 30.390463 -86.334420 272 10667ft 283kts
17-Aug-14 02:44 30.395838 -86.427915 272 11991ft 318kts
17-Aug-14 02:45 30.402274 -86.541199 272 12009ft 375kts
17-Aug-14 02:46 30.407630 -86.635560 272 12012ft 0kts
17-Aug-14 02:47 30.344116 -85.793702 158 63ft 0kts
17-Aug-14 02:48 30.344115 -85.793702 158 63ft 0kts
17-Aug-14 02:49 30.344115 -85.793702 158 63ft 0kts
17-Aug-14 02:50 30.344115 -85.793702 158 63ft 0kts
17-Aug-14 02:51 30.344505 -85.793462 67 63ft 8kts
17-Aug-14 02:52 30.345052 -85.791709 68 63ft 0kts
17-Aug-14 02:53 30.345531 -85.790339 59 63ft 9kts
17-Aug-14 02:54 30.367450 -85.799552 339 952ft 209kts
17-Aug-14 02:55 30.424603 -85.827927 326 3156ft 243kts
17-Aug-14 02:56 30.459841 -85.890579 257 6647ft 262kts
17-Aug-14 02:57 30.435633 -85.973998 248 10104ft 282kts
17-Aug-14 02:58 30.408463 -86.063847 251 12003ft 310kts
17-Aug-14 02:59 30.391734 -86.169482 265 12006ft 347kts
17-Aug-14 03:00 30.390679 -86.282830 270 12008ft 354kts
17-Aug-14 03:01 30.395057 -86.397293 272 12009ft 355kts
17-Aug-14 03:02 30.400951 -86.511526 272 12009ft 355kts
17-Aug-14 03:03 30.407224 -86.625718 272 12011ft 353kts
17-Aug-14 03:04 30.413488 -86.739331 272 12006ft 352kts
17-Aug-14 03:05 30.419681 -86.852829 272 12002ft 352kts
17-Aug-14 03:06 30.425764 -86.965885 272 12000ft 352kts
17-Aug-14 03:07 30.431774 -87.079364 272 12001ft 352kts
17-Aug-14 03:08 30.439547 -87.192678 274 12000ft 352kts
17-Aug-14 03:09 30.451210 -87.301332 275 12000ft 352kts
17-Aug-14 03:10 30.464127 -87.414963 276 12000ft 352kts
17-Aug-14 03:11 30.476937 -87.527729 275 12001ft 352kts
17-Aug-14 03:12 30.487531 -87.621654 275 12006ft 351kts
17-Aug-14 03:13 30.499940 -87.733672 275 12004ft 350kts
17-Aug-14 03:14 30.511894 -87.845829 275 12001ft 349kts
17-Aug-14 03:15 30.523668 -87.957884 275 12001ft 349kts
17-Aug-14 03:16 30.535372 -88.070293 275 12007ft 351kts
17-Aug-14 03:17 30.545965 -88.183015 267 12007ft 351kts
17-Aug-14 03:18 30.520952 -88.292271 247 12006ft 349kts
17-Aug-14 03:19 30.482316 -88.395844 245 12002ft 349kts
17-Aug-14 03:20 30.442579 -88.498448 245 12000ft 347kts
17-Aug-14 03:21 30.404612 -88.601071 254 12000ft 347kts
17-Aug-14 03:22 30.396156 -88.712366 268 11999ft 347kts
17-Aug-14 03:23 30.398724 -88.824464 270 11999ft 347kts
17-Aug-14 03:24 30.402334 -88.936445 270 11999ft 347kts
17-Aug-14 03:25 30.404244 -89.048078 262 11992ft 346kts
17-Aug-14 03:26 30.380429 -89.146952 248 10166ft 287kts
17-Aug-14 03:27 30.350437 -89.229191 246 8188ft 269kts
17-Aug-14 03:28 30.321324 -89.307538 246 6210ft 259kts
17-Aug-14 03:29 30.293513 -89.382573 246 5982ft 253kts
17-Aug-14 03:30 30.275053 -89.446045 255 5505ft 256kts
17-Aug-14 03:31 30.261245 -89.523390 257 4028ft 244kts
17-Aug-14 03:32 30.248644 -89.600767 257 3978ft 243kts
17-Aug-14 03:33 30.236280 -89.677811 257 3989ft 244kts
17-Aug-14 03:34 30.223864 -89.755197 257 3996ft 244kts
17-Aug-14 03:35 30.211386 -89.832928 257 2287ft 242kts
17-Aug-14 03:36 30.199165 -89.908501 257 1859ft 241kts
17-Aug-14 03:37 30.188040 -89.977504 257 1694ft 187kts
17-Aug-14 03:38 30.175998 -90.030022 219 1685ft 153kts
17-Aug-14 03:39 30.142994 -90.031090 179 1689ft 102kts
17-Aug-14 03:40 30.115783 -90.027542 176 1237ft 98kts
17-Aug-14 03:41 30.090111 -90.026722 183 936ft 95kts
17-Aug-14 03:42 30.062902 -90.027619 180 292ft 91kts
17-Aug-14 03:43 30.273483 -89.453818 255 5310ft 260kts
17-Aug-14 03:44 30.120303 -90.012234 183 1571ft 179kts
17-Aug-14 03:45 30.114732 -90.027657 175 1256ft 1kts
17-Aug-14 03:46 30.117216 -90.026480 182 1117ft 114kts
17-Aug-14 03:47 30.087593 -90.026357 188 765ft 119kts
17-Aug-14 03:48 30.076516 -90.028117 178 569ft 112kts
17-Aug-14 03:49 30.046951 -90.027585 180 16ft 92kts
17-Aug-14 03:50 30.040888 -90.027518 177 16ft 7kts
17-Aug-14 03:51 30.040185 -90.027458 169 16ft 7kts
17-Aug-14 03:52 30.040118 -90.023705 134 16ft 15kts
17-Aug-14 03:53 30.037370 -90.020483 132 16ft 13kts
17-Aug-14 03:54 30.038459 -90.019850 41 16ft 0kts
17-Aug-14 03:55 30.038460 -90.019849 41 16ft 0kts
17-Aug-14 03:56 30.038460 -90.019849 41 16ft 0kts
17-Aug-14 03:57 30.038460 -90.019849 41 16ft 0kts
17-Aug-14 03:58 30.038460 -90.019849 41 16ft 0kts
17-Aug-14 03:59 30.038460 -90.019849 41 16ft 0kts
17-Aug-14 04:00 30.038460 -90.019849 41 16ft 0kts

Navigation Log

Ident Type
Flight plan parsing failed, navigation log unavailable